Time;durP1;ratioP1;P1;durP2;ratioP2;P2;SDS_P1;SDS_P2;PMS_P1;PMS_P2;Temp;Humidity;BMP_temperature;BMP_pressure;BME280_temperature;BME280_humidity;BME280_pressure;Samples;Min_cycle;Max_cycle;Signal;HPM_P1;HPM_P2
2022/10/27 00:02:02;;;;;;;;;;;14.70;99.90;;;;;;5038717;28;19916;-82
2022/10/27 00:04:27;;;;;;;;;;;14.70;99.90;;;;;;5038395;28;19912;-82
2022/10/27 00:06:53;;;;;;;;;;;14.60;99.90;;;;;;5037370;28;19913;-82
2022/10/27 00:09:18;;;;;;;;;;;14.60;99.90;;;;;;5034107;28;20519;-81
2022/10/27 00:11:44;;;;;;;;;;;14.60;99.90;;;;;;5036782;28;19913;-82
2022/10/27 00:14:09;;;;;;;;;;;14.60;99.90;;;;;;5053343;28;19909;-83
2022/10/27 00:16:35;;;;;;;;;;;14.60;99.90;;;;;;5035440;28;19908;-81
2022/10/27 00:19:00;;;;;;;;;;;14.70;99.90;;;;;;5051414;28;19916;-81
2022/10/27 00:21:26;;;;;;;;;;;14.70;99.90;;;;;;5053883;28;19916;-83
2022/10/27 00:23:51;;;;;;;;;;;14.70;99.90;;;;;;5054083;28;19909;-82
2022/10/27 00:26:18;;;;;;;;;;;14.70;99.90;;;;;;5036289;28;19919;-81
2022/10/27 00:28:44;;;;;;;;;;;14.70;99.90;;;;;;5053988;28;19971;-83
2022/10/27 00:31:14;;;;;;;;;;;14.80;99.90;;;;;;5035902;28;20326;-82
2022/10/27 00:33:40;;;;;;;;;;;14.80;99.90;;;;;;5036338;28;20035;-82
2022/10/27 00:36:06;;;;;;;;;;;14.80;99.90;;;;;;5036106;28;19916;-81
2022/10/27 00:38:32;;;;;;;;;;;14.90;99.90;;;;;;5035634;28;19909;-83
2022/10/27 00:40:57;;;;;;;;;;;14.90;99.90;;;;;;5052957;28;19909;-82
2022/10/27 00:43:27;;;;;;;;;;;14.90;99.90;;;;;;5053966;28;19935;-82
2022/10/27 00:45:54;;;;;;;;;;;15.00;99.90;;;;;;5036140;28;20059;-82
2022/10/27 00:48:20;;;;;;;;;;;14.90;99.90;;;;;;5035563;28;19913;-82
2022/10/27 00:50:46;;;;;;;;;;;15.00;99.90;;;;;;5052592;28;20288;-82
2022/10/27 00:53:11;;;;;;;;;;;14.90;99.90;;;;;;5035843;28;19909;-81
2022/10/27 00:55:38;;;;;;;;;;;14.90;99.90;;;;;;5053430;28;19909;-82
2022/10/27 00:58:05;;;;;;;;;;;14.90;99.90;;;;;;5035509;28;20335;-82
2022/10/27 01:00:31;;;;;;;;;;;14.90;99.90;;;;;;5053774;28;19909;-82
2022/10/27 01:02:57;;;;;;;;;;;14.90;99.90;;;;;;5035621;28;20322;-82
2022/10/27 01:05:24;;;;;;;;;;;14.90;99.90;;;;;;5035323;28;19913;-81
2022/10/27 01:07:50;;;;;;;;;;;14.90;99.90;;;;;;5035225;28;20356;-82
2022/10/27 01:10:17;;;;;;;;;;;14.90;99.90;;;;;;5053330;28;19909;-82
2022/10/27 01:12:42;;;;;;;;;;;14.90;99.90;;;;;;5053166;28;20284;-82
2022/10/27 01:15:09;;;;;;;;;;;14.90;99.90;;;;;;5053299;28;19909;-81
2022/10/27 01:17:53;;;;;;;;;;;14.90;99.90;;;;;;5052955;28;19909;-81
2022/10/27 01:20:37;;;;;;;;;;;14.90;99.90;;;;;;5051948;28;19908;-82
2022/10/27 01:23:05;;;;;;;;;;;14.90;99.90;;;;;;5052943;28;20323;-81
2022/10/27 01:25:43;;;;;;;;;;;14.90;99.90;;;;;;5035416;28;20348;-81
2022/10/27 01:28:27;;;;;;;;;;;14.80;99.90;;;;;;5039019;28;20352;-81
2022/10/27 01:31:12;;;;;;;;;;;14.80;99.90;;;;;;5055759;28;19940;-81
2022/10/27 01:33:46;;;;;;;;;;;14.80;99.90;;;;;;5056014;28;19909;-81
2022/10/27 01:36:17;;;;;;;;;;;14.70;99.90;;;;;;5056746;28;20336;-82
2022/10/27 01:38:57;;;;;;;;;;;14.80;99.90;;;;;;5039052;28;19913;-81
2022/10/27 01:41:28;;;;;;;;;;;14.70;99.90;;;;;;5055685;28;19915;-82
2022/10/27 01:43:55;;;;;;;;;;;14.70;99.90;;;;;;5038921;28;19913;-82
2022/10/27 01:46:21;;;;;;;;;;;14.70;99.90;;;;;;5055271;28;19909;-82
2022/10/27 01:48:47;;;;;;;;;;;14.70;99.90;;;;;;5056806;28;19934;-82
2022/10/27 01:51:13;;;;;;;;;;;14.70;99.90;;;;;;5038686;28;20488;-81
2022/10/27 01:53:48;;;;;;;;;;;14.60;99.90;;;;;;5038728;28;19995;-82
2022/10/27 01:56:14;;;;;;;;;;;14.60;99.90;;;;;;5056564;28;19955;-82
2022/10/27 01:59:18;;;;;;;;;;;14.60;99.90;;;;;;5038395;28;19909;-82
2022/10/27 02:01:43;;;;;;;;;;;14.60;99.90;;;;;;4975236;28;20018;-82
2022/10/27 02:04:14;;;;;;;;;;;14.60;99.90;;;;;;4958883;28;20274;-81
2022/10/27 02:06:42;;;;;;;;;;;14.60;99.90;;;;;;4998099;28;20016;-82
2022/10/27 02:09:23;;;;;;;;;;;14.50;99.90;;;;;;5038019;28;19917;-81
2022/10/27 02:11:51;;;;;;;;;;;14.50;99.90;;;;;;5038342;28;19913;-82
2022/10/27 02:14:17;;;;;;;;;;;14.60;99.90;;;;;;5038263;28;19912;-81
2022/10/27 02:16:44;;;;;;;;;;;14.50;99.90;;;;;;5055802;28;19913;-81
2022/10/27 02:19:30;;;;;;;;;;;14.50;99.90;;;;;;5037858;28;19909;-81
2022/10/27 02:21:58;;;;;;;;;;;14.50;99.90;;;;;;5037153;28;19916;-82
2022/10/27 02:24:24;;;;;;;;;;;14.50;99.90;;;;;;5037878;28;19959;-82
2022/10/27 02:26:58;;;;;;;;;;;14.50;99.90;;;;;;5055472;28;19909;-82
2022/10/27 02:29:27;;;;;;;;;;;14.50;99.90;;;;;;5055453;28;19919;-82
2022/10/27 02:31:55;;;;;;;;;;;14.50;99.90;;;;;;5037840;28;20145;-82
2022/10/27 02:34:23;;;;;;;;;;;14.50;99.90;;;;;;5055390;28;19909;-81
2022/10/27 02:36:48;;;;;;;;;;;14.50;99.90;;;;;;5037407;28;19909;-81
2022/10/27 02:39:14;;;;;;;;;;;14.50;99.90;;;;;;5036861;28;20386;-82
2022/10/27 02:41:39;;;;;;;;;;;14.40;99.90;;;;;;5037607;28;19909;-82
2022/10/27 02:44:04;;;;;;;;;;;14.50;99.90;;;;;;5037602;28;20531;-82
2022/10/27 02:46:30;;;;;;;;;;;14.40;99.90;;;;;;5054015;28;19931;-82
2022/10/27 02:48:55;;;;;;;;;;;14.30;99.90;;;;;;5037267;28;19915;-82
2022/10/27 02:51:21;;;;;;;;;;;14.30;99.90;;;;;;5037235;28;19916;-82
2022/10/27 02:53:46;;;;;;;;;;;14.30;99.90;;;;;;5053887;28;20394;-82
2022/10/27 02:56:12;;;;;;;;;;;14.30;99.90;;;;;;5054951;28;19985;-83
2022/10/27 02:58:37;;;;;;;;;;;14.20;99.90;;;;;;5037302;28;19916;-81
2022/10/27 03:01:03;;;;;;;;;;;14.20;99.90;;;;;;5037257;28;19913;-82
2022/10/27 03:03:28;;;;;;;;;;;14.20;99.90;;;;;;5054833;28;19912;-82
2022/10/27 03:05:54;;;;;;;;;;;14.20;99.90;;;;;;5037120;28;20004;-81
2022/10/27 03:08:19;;;;;;;;;;;14.10;99.90;;;;;;5036681;28;19967;-81
2022/10/27 03:10:45;;;;;;;;;;;14.10;99.90;;;;;;5054651;28;19975;-81
2022/10/27 03:13:10;;;;;;;;;;;14.00;99.90;;;;;;5036921;28;19916;-82
2022/10/27 03:15:36;;;;;;;;;;;14.00;99.90;;;;;;5036565;28;19909;-82
2022/10/27 03:18:02;;;;;;;;;;;14.00;99.90;;;;;;5036627;28;19920;-82
2022/10/27 03:20:27;;;;;;;;;;;13.90;99.90;;;;;;5054571;28;20281;-82
2022/10/27 03:22:53;;;;;;;;;;;13.90;99.90;;;;;;5037010;28;20395;-81
2022/10/27 03:25:18;;;;;;;;;;;13.90;99.90;;;;;;5036733;28;19908;-82
2022/10/27 03:27:44;;;;;;;;;;;13.90;99.90;;;;;;5036181;28;20471;-82
2022/10/27 03:30:11;;;;;;;;;;;13.90;99.90;;;;;;5054398;28;19916;-82
2022/10/27 03:32:36;;;;;;;;;;;13.90;99.90;;;;;;5036350;28;19913;-81
2022/10/27 03:35:02;;;;;;;;;;;13.80;99.90;;;;;;5036389;28;19916;-81
2022/10/27 03:37:27;;;;;;;;;;;13.90;99.90;;;;;;5035980;28;20003;-82
2022/10/27 03:39:53;;;;;;;;;;;13.90;99.90;;;;;;5036305;28;19952;-82
2022/10/27 03:42:18;;;;;;;;;;;13.90;99.90;;;;;;5054128;28;19909;-82
2022/10/27 03:44:44;;;;;;;;;;;13.90;99.90;;;;;;5054020;28;19999;-82
2022/10/27 03:47:09;;;;;;;;;;;13.90;99.90;;;;;;5053656;28;19912;-82
2022/10/27 03:49:35;;;;;;;;;;;13.90;99.90;;;;;;5035793;28;20433;-81
2022/10/27 03:52:00;;;;;;;;;;;13.90;99.90;;;;;;5035340;28;20011;-81
2022/10/27 03:54:29;;;;;;;;;;;13.80;99.90;;;;;;5036954;28;19908;-82
2022/10/27 03:56:55;;;;;;;;;;;13.90;99.90;;;;;;5036924;28;19909;-83
2022/10/27 03:59:20;;;;;;;;;;;13.80;99.90;;;;;;5037037;28;19915;-82
2022/10/27 04:01:46;;;;;;;;;;;13.80;99.90;;;;;;5036907;28;19912;-82
2022/10/27 04:04:11;;;;;;;;;;;13.80;99.90;;;;;;5036999;28;19916;-81
2022/10/27 04:06:37;;;;;;;;;;;13.70;99.90;;;;;;5053596;28;19916;-82
2022/10/27 04:09:03;;;;;;;;;;;13.70;99.90;;;;;;5086711;22;19924;-82
2022/10/27 04:11:30;;;;;;;;;;;13.70;99.90;;;;;;5078351;28;20348;-82
2022/10/27 04:13:56;;;;;;;;;;;13.70;99.90;;;;;;5078486;28;19912;-82
2022/10/27 04:16:21;;;;;;;;;;;13.60;99.90;;;;;;5078324;28;20505;-82
2022/10/27 04:18:47;;;;;;;;;;;13.60;99.90;;;;;;5078059;28;19916;-83
2022/10/27 04:21:13;;;;;;;;;;;13.60;99.90;;;;;;5078347;28;19908;-82
2022/10/27 04:23:39;;;;;;;;;;;13.50;99.90;;;;;;5078331;28;20339;-82
2022/10/27 04:26:04;;;;;;;;;;;13.50;99.90;;;;;;5077690;28;19998;-82
2022/10/27 04:28:30;;;;;;;;;;;13.50;99.90;;;;;;5077971;28;19908;-81
2022/10/27 04:30:55;;;;;;;;;;;13.50;99.90;;;;;;5078090;28;20290;-82
2022/10/27 04:33:21;;;;;;;;;;;13.50;99.90;;;;;;5077968;28;19908;-82
2022/10/27 04:35:47;;;;;;;;;;;13.40;99.90;;;;;;5096243;28;19908;-82
2022/10/27 04:38:12;;;;;;;;;;;13.40;99.90;;;;;;5078084;28;19908;-82
2022/10/27 04:40:38;;;;;;;;;;;13.40;99.90;;;;;;5077850;28;19908;-82
2022/10/27 04:43:04;;;;;;;;;;;13.40;99.90;;;;;;5078098;28;19916;-82
2022/10/27 04:45:29;;;;;;;;;;;13.40;99.90;;;;;;5077921;28;20347;-83
2022/10/27 04:47:55;;;;;;;;;;;13.40;99.90;;;;;;5077533;28;19969;-83
2022/10/27 04:50:21;;;;;;;;;;;13.40;99.90;;;;;;5077756;28;20080;-82
2022/10/27 04:52:57;;;;;;;;;;;13.40;99.90;;;;;;5077486;28;19956;-82
2022/10/27 04:55:22;;;;;;;;;;;13.40;99.90;;;;;;5076461;28;19912;-83
2022/10/27 04:57:48;;;;;;;;;;;13.40;99.90;;;;;;5077155;28;19908;-82
2022/10/27 05:00:14;;;;;;;;;;;13.40;99.90;;;;;;5077259;28;19964;-82
2022/10/27 05:02:39;;;;;;;;;;;13.40;99.90;;;;;;5078016;28;20434;-82
2022/10/27 05:05:05;;;;;;;;;;;13.40;99.90;;;;;;5078741;28;19908;-82
2022/10/27 05:07:30;;;;;;;;;;;13.40;99.90;;;;;;5076978;28;19915;-83
2022/10/27 05:09:56;;;;;;;;;;;13.50;99.90;;;;;;5079055;28;19916;-83
2022/10/27 05:12:22;;;;;;;;;;;13.50;99.90;;;;;;5078286;28;19918;-82
2022/10/27 05:14:48;;;;;;;;;;;13.50;99.90;;;;;;5053995;28;19981;-83
2022/10/27 05:17:13;;;;;;;;;;;13.50;99.90;;;;;;5037070;28;19947;-84
2022/10/27 05:19:39;;;;;;;;;;;13.60;99.90;;;;;;5036612;28;19916;-84
2022/10/27 05:22:04;;;;;;;;;;;13.50;99.90;;;;;;5040660;28;19959;-85
2022/10/27 05:24:30;;;;;;;;;;;13.50;99.90;;;;;;5042446;28;19970;-82
2022/10/27 05:26:55;;;;;;;;;;;13.60;99.90;;;;;;5042139;28;19913;-83
2022/10/27 05:29:21;;;;;;;;;;;13.50;99.90;;;;;;5036409;28;19913;-82
2022/10/27 05:31:47;;;;;;;;;;;13.60;99.90;;;;;;5037643;28;19923;-84
2022/10/27 05:34:12;;;;;;;;;;;13.60;99.90;;;;;;5037836;28;19955;-85
2022/10/27 05:36:38;;;;;;;;;;;13.60;99.90;;;;;;5036373;28;19915;-85
2022/10/27 05:39:03;;;;;;;;;;;13.60;99.90;;;;;;5035443;28;19952;-83
2022/10/27 05:41:29;;;;;;;;;;;13.60;99.90;;;;;;5035148;28;19970;-84
2022/10/27 05:43:54;;;;;;;;;;;13.60;99.90;;;;;;5034521;28;19909;-84
2022/10/27 05:46:20;;;;;;;;;;;13.60;99.90;;;;;;5034234;28;19963;-83
2022/10/27 05:48:46;;;;;;;;;;;13.60;99.90;;;;;;5034126;28;19909;-83
2022/10/27 05:51:11;;;;;;;;;;;13.60;99.90;;;;;;5034102;28;19920;-83
2022/10/27 05:53:37;;;;;;;;;;;13.60;99.90;;;;;;5034177;28;19959;-83
2022/10/27 05:56:02;;;;;;;;;;;13.60;99.90;;;;;;5034122;28;19951;-84
2022/10/27 05:58:28;;;;;;;;;;;13.70;99.90;;;;;;5034047;28;19909;-84
2022/10/27 06:00:56;;;;;;;;;;;13.70;99.90;;;;;;5034041;28;19993;-84
2022/10/27 06:03:22;;;;;;;;;;;13.70;99.90;;;;;;5034230;28;19909;-84
2022/10/27 06:05:48;;;;;;;;;;;13.70;99.90;;;;;;5034840;28;19917;-84
2022/10/27 06:08:14;;;;;;;;;;;13.80;99.90;;;;;;5034110;28;19909;-84
2022/10/27 06:10:40;;;;;;;;;;;13.80;99.90;;;;;;5033761;28;19955;-83
2022/10/27 06:13:07;;;;;;;;;;;13.80;99.90;;;;;;5033755;28;19913;-84
2022/10/27 06:15:33;;;;;;;;;;;13.80;99.90;;;;;;5036957;28;19908;-84
2022/10/27 06:17:59;;;;;;;;;;;13.90;99.90;;;;;;5037384;28;20374;-84
2022/10/27 06:20:25;;;;;;;;;;;13.90;99.90;;;;;;5050930;22;20011;-79
2022/10/27 06:22:51;;;;;;;;;;;13.90;99.90;;;;;;5056381;28;20352;-79
2022/10/27 06:25:16;;;;;;;;;;;14.00;99.90;;;;;;5055956;28;19954;-80
2022/10/27 06:27:42;;;;;;;;;;;14.00;99.90;;;;;;5020109;28;19936;-81
2022/10/27 06:30:08;;;;;;;;;;;14.00;99.90;;;;;;5018402;28;19909;-79
2022/10/27 06:32:39;;;;;;;;;;;14.00;99.90;;;;;;5036061;28;19921;-79
2022/10/27 06:35:05;;;;;;;;;;;14.00;99.90;;;;;;5036148;28;20004;-79
2022/10/27 06:37:30;;;;;;;;;;;14.10;99.90;;;;;;5035846;28;19953;-79
2022/10/27 06:39:56;;;;;;;;;;;14.10;99.90;;;;;;5018050;28;20368;-80
2022/10/27 06:42:22;;;;;;;;;;;14.10;99.90;;;;;;5035941;28;19916;-79
2022/10/27 06:44:47;;;;;;;;;;;14.10;99.90;;;;;;5035719;28;19910;-79
2022/10/27 06:47:13;;;;;;;;;;;14.20;99.90;;;;;;5035670;28;19909;-80
2022/10/27 06:49:39;;;;;;;;;;;14.20;99.90;;;;;;5035714;28;20379;-81
2022/10/27 06:52:04;;;;;;;;;;;14.20;99.90;;;;;;5035476;28;19913;-80
2022/10/27 06:54:30;;;;;;;;;;;14.20;99.90;;;;;;5017691;28;19916;-79
2022/10/27 06:56:55;;;;;;;;;;;14.30;99.90;;;;;;5035600;28;19910;-79
2022/10/27 06:59:21;;;;;;;;;;;14.30;99.90;;;;;;5035383;28;19958;-79
2022/10/27 07:01:46;;;;;;;;;;;14.30;99.90;;;;;;5035178;28;19916;-80
2022/10/27 07:04:11;;;;;;;;;;;14.30;99.90;;;;;;5034960;28;19920;-79
2022/10/27 07:06:37;;;;;;;;;;;14.40;99.90;;;;;;5034908;28;19916;-81
2022/10/27 07:09:03;;;;;;;;;;;14.40;99.90;;;;;;5017005;28;19910;-82
2022/10/27 07:11:28;;;;;;;;;;;14.40;99.90;;;;;;5016815;28;19913;-82
2022/10/27 07:13:54;;;;;;;;;;;14.50;99.90;;;;;;5017293;28;19917;-81
2022/10/27 07:16:20;;;;;;;;;;;14.50;99.90;;;;;;5035058;28;20365;-82
2022/10/27 07:18:45;;;;;;;;;;;14.50;99.90;;;;;;5035221;28;20411;-80
2022/10/27 07:21:11;;;;;;;;;;;14.50;99.90;;;;;;5038461;28;19917;-86
2022/10/27 07:23:36;;;;;;;;;;;14.60;99.90;;;;;;5036565;28;20365;-85
2022/10/27 07:26:02;;;;;;;;;;;14.70;99.90;;;;;;5040319;28;19997;-82
2022/10/27 07:28:27;;;;;;;;;;;14.70;99.90;;;;;;5055724;28;19913;-84
2022/10/27 07:30:54;;;;;;;;;;;14.80;99.90;;;;;;5055483;28;19991;-82
2022/10/27 07:33:19;;;;;;;;;;;14.80;99.90;;;;;;5025348;28;20351;-79
2022/10/27 07:35:48;;;;;;;;;;;14.90;99.90;;;;;;5035638;28;19909;-78
2022/10/27 07:38:14;;;;;;;;;;;15.00;99.90;;;;;;5018651;28;19913;-78
2022/10/27 07:40:40;;;;;;;;;;;15.10;99.90;;;;;;5036449;28;19959;-79
2022/10/27 07:43:05;;;;;;;;;;;15.10;99.90;;;;;;5035756;28;19909;-79
2022/10/27 07:45:31;;;;;;;;;;;15.20;99.90;;;;;;5017883;28;19952;-79
2022/10/27 07:47:57;;;;;;;;;;;15.30;99.90;;;;;;5036270;28;20442;-79
2022/10/27 07:50:26;;;;;;;;;;;15.30;99.90;;;;;;5036011;28;19914;-78
2022/10/27 07:52:51;;;;;;;;;;;15.40;99.90;;;;;;5036016;28;19959;-79
2022/10/27 07:55:18;;;;;;;;;;;15.40;99.90;;;;;;5035881;28;19909;-79
2022/10/27 07:57:44;;;;;;;;;;;15.50;99.90;;;;;;5036090;28;19913;-79
2022/10/27 08:00:11;;;;;;;;;;;15.50;99.90;;;;;;5035991;28;19920;-79
2022/10/27 08:02:36;;;;;;;;;;;15.60;99.90;;;;;;5035766;28;20376;-79
2022/10/27 08:05:02;;;;;;;;;;;15.60;99.90;;;;;;5035015;28;19909;-79
2022/10/27 08:07:28;;;;;;;;;;;15.70;99.90;;;;;;5017980;28;19909;-79
2022/10/27 08:09:53;;;;;;;;;;;15.80;99.90;;;;;;5035338;28;19995;-79
2022/10/27 08:12:19;;;;;;;;;;;15.90;99.90;;;;;;5035992;28;20400;-79
2022/10/27 08:14:44;;;;;;;;;;;16.00;99.90;;;;;;5037458;28;19984;-79
2022/10/27 08:17:09;;;;;;;;;;;16.10;99.90;;;;;;5036468;28;19920;-78
2022/10/27 08:19:35;;;;;;;;;;;16.20;99.90;;;;;;5034617;28;19909;-77
2022/10/27 08:22:00;;;;;;;;;;;16.30;99.90;;;;;;5016839;28;19964;-78
2022/10/27 08:24:26;;;;;;;;;;;16.40;99.90;;;;;;5035172;28;19980;-78
2022/10/27 08:26:51;;;;;;;;;;;16.50;99.90;;;;;;5034734;28;19909;-78
2022/10/27 08:29:17;;;;;;;;;;;16.50;99.90;;;;;;5017313;28;20377;-78
2022/10/27 08:31:42;;;;;;;;;;;16.60;99.90;;;;;;5035037;28;20288;-79
2022/10/27 08:34:08;;;;;;;;;;;16.70;99.90;;;;;;5017731;28;19916;-78
2022/10/27 08:36:37;;;;;;;;;;;16.80;99.90;;;;;;5034223;28;20373;-78
2022/10/27 08:39:04;;;;;;;;;;;16.90;99.90;;;;;;5035059;28;20450;-78
2022/10/27 08:41:38;;;;;;;;;;;17.00;99.90;;;;;;5034416;28;19910;-78
2022/10/27 08:44:22;;;;;;;;;;;17.10;99.90;;;;;;5015286;28;20067;-77
2022/10/27 08:46:48;;;;;;;;;;;17.20;99.90;;;;;;5033187;28;19916;-78
2022/10/27 08:49:20;;;;;;;;;;;17.20;99.90;;;;;;5033143;28;19913;-78
2022/10/27 08:51:47;;;;;;;;;;;17.40;99.90;;;;;;5032574;28;19917;-78
2022/10/27 08:54:12;;;;;;;;;;;17.50;99.90;;;;;;5032786;28;19909;-78
2022/10/27 08:56:40;;;;;;;;;;;17.60;99.90;;;;;;5032656;28;19916;-78
2022/10/27 08:59:12;;;;;;;;;;;17.80;99.90;;;;;;5032449;28;19909;-78
2022/10/27 09:01:48;;;;;;;;;;;17.90;99.90;;;;;;5032752;28;19967;-78
2022/10/27 09:04:27;;;;;;;;;;;18.00;99.90;;;;;;5032403;28;20016;-78
2022/10/27 09:06:53;;;;;;;;;;;18.10;99.90;;;;;;5032464;28;20300;-78
2022/10/27 09:09:29;;;;;;;;;;;18.20;99.90;;;;;;5032263;28;19917;-78
2022/10/27 09:12:04;;;;;;;;;;;18.30;99.90;;;;;;5032419;28;20020;-78
2022/10/27 09:14:35;;;;;;;;;;;18.30;99.90;;;;;;5032404;28;19944;-78
2022/10/27 09:17:11;;;;;;;;;;;18.50;99.90;;;;;;5031197;28;19999;-78
2022/10/27 09:19:45;;;;;;;;;;;18.50;99.90;;;;;;5014397;28;19913;-78
2022/10/27 09:22:20;;;;;;;;;;;18.60;99.90;;;;;;5014942;28;19919;-78
2022/10/27 09:25:17;;;;;;;;;;;18.60;99.90;;;;;;5032253;28;20368;-78
2022/10/27 09:27:44;;;;;;;;;;;18.70;99.90;;;;;;4988203;28;19909;-78
2022/10/27 09:30:11;;;;;;;;;;;18.70;99.90;;;;;;5014473;28;19909;-78
2022/10/27 09:32:38;;;;;;;;;;;18.90;99.90;;;;;;5032246;28;19913;-78
2022/10/27 09:35:08;;;;;;;;;;;18.90;99.90;;;;;;5030854;28;19913;-78
2022/10/27 09:37:39;;;;;;;;;;;19.10;99.90;;;;;;5014356;28;19913;-78
2022/10/27 09:40:10;;;;;;;;;;;19.20;99.90;;;;;;5031942;28;19940;-79
2022/10/27 09:42:35;;;;;;;;;;;19.20;99.90;;;;;;5032168;28;19909;-78
2022/10/27 09:45:01;;;;;;;;;;;19.30;99.90;;;;;;5032177;28;20015;-78
2022/10/27 09:47:29;;;;;;;;;;;19.40;99.90;;;;;;5014178;28;19988;-78
2022/10/27 09:49:55;;;;;;;;;;;19.50;99.90;;;;;;5035844;28;19916;-78
2022/10/27 09:52:30;;;;;;;;;;;19.60;99.90;;;;;;5035747;28;20350;-79
2022/10/27 09:54:56;;;;;;;;;;;19.80;99.90;;;;;;5035835;28;19913;-78
2022/10/27 09:57:25;;;;;;;;;;;19.90;99.90;;;;;;5035639;28;19974;-78
2022/10/27 10:00:02;;;;;;;;;;;20.00;99.90;;;;;;5035807;28;19909;-78
2022/10/27 10:02:29;;;;;;;;;;;20.10;99.90;;;;;;5035928;28;20284;-79
2022/10/27 10:04:56;;;;;;;;;;;20.10;99.90;;;;;;5035868;28;19909;-78
2022/10/27 10:07:29;;;;;;;;;;;20.20;99.90;;;;;;5018063;28;20392;-78
2022/10/27 10:10:06;;;;;;;;;;;20.40;99.90;;;;;;5093239;23;19931;-79
2022/10/27 10:12:31;;;;;;;;;;;20.50;99.90;;;;;;5097115;28;19920;-79
2022/10/27 10:15:09;;;;;;;;;;;20.60;99.90;;;;;;5078213;28;20399;-79
2022/10/27 10:17:35;;;;;;;;;;;20.70;99.90;;;;;;5077596;28;19915;-79
2022/10/27 10:20:01;;;;;;;;;;;20.90;99.90;;;;;;5095891;28;19908;-79
2022/10/27 10:22:30;;;;;;;;;;;20.90;99.90;;;;;;5096138;28;20009;-79
2022/10/27 10:24:58;;;;;;;;;;;21.00;99.90;;;;;;5095984;28;19908;-79
2022/10/27 10:27:26;;;;;;;;;;;21.20;99.90;;;;;;5095624;28;20324;-79
2022/10/27 10:29:52;;;;;;;;;;;21.40;99.90;;;;;;5095970;28;19912;-79
2022/10/27 10:32:21;;;;;;;;;;;21.60;99.90;;;;;;5095706;28;19939;-79
2022/10/27 10:34:47;;;;;;;;;;;21.60;99.90;;;;;;5077746;28;19908;-78
2022/10/27 10:37:27;;;;;;;;;;;21.80;99.90;;;;;;5095637;28;19912;-78
2022/10/27 10:39:53;;;;;;;;;;;21.90;99.90;;;;;;5095729;28;19975;-79
2022/10/27 10:42:18;;;;;;;;;;;22.80;99.90;;;;;;5095877;28;19912;-78
2022/10/27 10:44:44;;;;;;;;;;;24.30;99.90;;;;;;5095762;28;19916;-79
2022/10/27 10:47:24;;;;;;;;;;;26.20;99.90;;;;;;5095249;28;19908;-79
2022/10/27 10:49:55;;;;;;;;;;;27.90;99.90;;;;;;5095832;28;19915;-79
2022/10/27 10:52:22;;;;;;;;;;;29.00;99.90;;;;;;5095150;28;19912;-80
2022/10/27 10:54:47;;;;;;;;;;;30.20;99.90;;;;;;5077369;28;20321;-79
2022/10/27 10:57:28;;;;;;;;;;;30.40;99.90;;;;;;5095268;28;19992;-79
2022/10/27 10:59:55;;;;;;;;;;;30.50;99.70;;;;;;5094488;28;19916;-80
2022/10/27 11:02:31;;;;;;;;;;;31.00;97.00;;;;;;5095276;28;19913;-79
2022/10/27 11:04:58;;;;;;;;;;;31.80;95.10;;;;;;5095264;28;19908;-80
2022/10/27 11:07:30;;;;;;;;;;;31.70;92.80;;;;;;5094727;28;20003;-80
2022/10/27 11:09:55;;;;;;;;;;;31.90;92.20;;;;;;5076627;28;20382;-80
2022/10/27 11:12:25;;;;;;;;;;;32.80;92.50;;;;;;5076694;28;19912;-79
2022/10/27 11:14:51;;;;;;;;;;;32.70;88.00;;;;;;5077238;28;20268;-80
2022/10/27 11:17:18;;;;;;;;;;;31.80;86.80;;;;;;5076629;28;19908;-80
2022/10/27 11:19:44;;;;;;;;;;;31.40;90.00;;;;;;5094761;28;19908;-80
2022/10/27 11:22:14;;;;;;;;;;;31.60;88.90;;;;;;5094984;28;19908;-79
2022/10/27 11:24:54;;;;;;;;;;;31.70;88.70;;;;;;5095081;28;20569;-79
2022/10/27 11:27:23;;;;;;;;;;;32.40;88.00;;;;;;5094619;28;19961;-79
2022/10/27 11:30:02;;;;;;;;;;;33.30;85.20;;;;;;5076373;28;19912;-80
2022/10/27 11:32:33;;;;;;;;;;;34.10;81.50;;;;;;5076294;28;19965;-80
2022/10/27 11:35:38;;;;;;;;;;;34.70;76.30;;;;;;5094711;28;19915;-79
2022/10/27 11:38:06;;;;;;;;;;;34.20;74.40;;;;;;4976246;28;19910;-79
2022/10/27 11:40:31;;;;;;;;;;;33.00;75.10;;;;;;4992514;28;20328;-79
2022/10/27 11:42:58;;;;;;;;;;;32.20;76.10;;;;;;5024190;28;19914;-79
2022/10/27 11:45:31;;;;;;;;;;;32.30;79.40;;;;;;5094308;28;20411;-80
2022/10/27 11:48:00;;;;;;;;;;;32.30;78.80;;;;;;5075947;28;19951;-80
2022/10/27 11:50:32;;;;;;;;;;;32.10;79.30;;;;;;5093912;28;20352;-80
2022/10/27 11:52:58;;;;;;;;;;;31.80;79.80;;;;;;5093962;28;20279;-79
2022/10/27 11:55:27;;;;;;;;;;;32.00;80.30;;;;;;5075615;28;19912;-80
2022/10/27 11:57:53;;;;;;;;;;;32.10;80.80;;;;;;5095174;28;19915;-81
2022/10/27 12:00:26;;;;;;;;;;;32.30;80.10;;;;;;5077533;28;19908;-81
2022/10/27 12:03:10;;;;;;;;;;;32.20;78.20;;;;;;5095763;28;19912;-80
2022/10/27 12:05:41;;;;;;;;;;;32.20;78.60;;;;;;5076859;28;20057;-81
2022/10/27 12:08:10;;;;;;;;;;;32.00;78.30;;;;;;5094845;28;19956;-80
2022/10/27 12:10:42;;;;;;;;;;;31.20;79.20;;;;;;5094540;28;20301;-79
2022/10/27 12:13:11;;;;;;;;;;;30.60;81.80;;;;;;5074972;28;19919;-79
2022/10/27 12:15:55;;;;;;;;;;;30.30;83.50;;;;;;5093606;28;20285;-79
2022/10/27 12:18:37;;;;;;;;;;;30.60;82.50;;;;;;5093712;28;20455;-79
2022/10/27 12:21:13;;;;;;;;;;;29.90;82.60;;;;;;5093600;28;20235;-79
2022/10/27 12:23:42;;;;;;;;;;;29.20;84.80;;;;;;5093541;28;19909;-80
2022/10/27 12:26:14;;;;;;;;;;;28.50;88.90;;;;;;5093130;28;19958;-80
2022/10/27 12:28:40;;;;;;;;;;;28.00;90.90;;;;;;5093366;28;19916;-79
2022/10/27 12:31:08;;;;;;;;;;;27.80;91.80;;;;;;5093762;28;19938;-82
2022/10/27 12:33:37;;;;;;;;;;;27.80;93.00;;;;;;5074688;28;19996;-83
2022/10/27 12:36:07;;;;;;;;;;;27.80;92.70;;;;;;5067606;28;20022;-83
2022/10/27 12:38:33;;;;;;;;;;;27.60;93.70;;;;;;5074883;28;19908;-82
2022/10/27 12:41:10;;;;;;;;;;;27.50;94.20;;;;;;5067383;28;19980;-83
2022/10/27 12:43:39;;;;;;;;;;;27.40;95.10;;;;;;5069303;28;19909;-84
2022/10/27 12:46:07;;;;;;;;;;;27.30;96.20;;;;;;5074010;28;19951;-82
2022/10/27 12:48:38;;;;;;;;;;;27.20;96.80;;;;;;5094875;28;19908;-80
2022/10/27 12:51:19;;;;;;;;;;;27.10;97.50;;;;;;5094674;28;19912;-81
2022/10/27 12:53:45;;;;;;;;;;;26.70;97.70;;;;;;5075315;28;19908;-80
2022/10/27 12:56:28;;;;;;;;;;;26.40;99.60;;;;;;5074582;28;19917;-82
2022/10/27 12:59:02;;;;;;;;;;;26.10;99.90;;;;;;5075320;28;20388;-82
2022/10/27 13:01:37;;;;;;;;;;;26.00;99.90;;;;;;5074695;28;19912;-80
2022/10/27 13:04:18;;;;;;;;;;;26.00;99.90;;;;;;5057308;28;20322;-82
2022/10/27 13:06:51;;;;;;;;;;;26.30;99.90;;;;;;5074351;28;20296;-80
2022/10/27 13:09:16;;;;;;;;;;;26.50;99.90;;;;;;5074842;28;19967;-80
2022/10/27 13:11:57;;;;;;;;;;;26.60;99.90;;;;;;5074067;28;19916;-81
2022/10/27 13:14:28;;;;;;;;;;;26.30;99.90;;;;;;5056506;28;19942;-80
2022/10/27 13:16:53;;;;;;;;;;;26.10;99.90;;;;;;5056179;28;19909;-79
2022/10/27 13:19:30;;;;;;;;;;;26.00;99.90;;;;;;5074262;28;19915;-81
2022/10/27 13:22:15;;;;;;;;;;;25.80;99.90;;;;;;5074386;28;19915;-81
2022/10/27 13:24:45;;;;;;;;;;;25.70;99.90;;;;;;5076853;28;20360;-83
2022/10/27 13:27:27;;;;;;;;;;;25.60;99.90;;;;;;5071866;28;20399;-83
2022/10/27 13:29:55;;;;;;;;;;;25.40;99.90;;;;;;5096700;28;19959;-83
2022/10/27 13:32:26;;;;;;;;;;;25.30;99.90;;;;;;5066701;28;19912;-83
2022/10/27 13:34:58;;;;;;;;;;;25.30;99.90;;;;;;5059317;28;19913;-84
2022/10/27 13:37:37;;;;;;;;;;;25.40;99.90;;;;;;5068681;28;19912;-83
2022/10/27 13:40:21;;;;;;;;;;;25.40;99.90;;;;;;5079209;28;19908;-83
2022/10/27 13:42:53;;;;;;;;;;;25.40;99.90;;;;;;5079059;28;19908;-84
2022/10/27 13:45:28;;;;;;;;;;;25.30;99.90;;;;;;5078817;28;19931;-84
2022/10/27 13:48:06;;;;;;;;;;;25.20;99.90;;;;;;5078736;28;19908;-84
2022/10/27 13:50:35;;;;;;;;;;;25.30;99.90;;;;;;5077828;28;19912;-84
2022/10/27 13:53:27;;;;;;;;;;;25.40;99.90;;;;;;5078277;28;19962;-83
2022/10/27 13:55:52;;;;;;;;;;;25.60;99.90;;;;;;5073126;28;19962;-83
2022/10/27 13:58:18;;;;;;;;;;;25.80;99.90;;;;;;5078257;28;20375;-85
2022/10/27 14:00:52;;;;;;;;;;;25.90;99.90;;;;;;5078252;28;19908;-83
2022/10/27 14:03:21;;;;;;;;;;;26.00;99.90;;;;;;5078699;28;19956;-86
2022/10/27 14:05:47;;;;;;;;;;;26.00;99.90;;;;;;5078370;28;19965;-83
2022/10/27 14:08:17;;;;;;;;;;;25.80;99.90;;;;;;5078089;28;19915;-83
2022/10/27 14:10:43;;;;;;;;;;;25.60;99.90;;;;;;5078343;28;19916;-83
2022/10/27 14:13:28;;;;;;;;;;;25.30;99.90;;;;;;5096423;28;20310;-85
2022/10/27 14:15:55;;;;;;;;;;;25.10;99.90;;;;;;5078208;28;20310;-83
2022/10/27 14:18:29;;;;;;;;;;;24.80;99.90;;;;;;5078251;28;19915;-83
2022/10/27 14:20:56;;;;;;;;;;;24.60;99.90;;;;;;5078734;28;19908;-86
2022/10/27 14:23:21;;;;;;;;;;;24.40;99.90;;;;;;5078361;28;19918;-84
2022/10/27 14:25:47;;;;;;;;;;;24.20;99.90;;;;;;5075228;28;20003;-84